sensor_id;sensor_type;location;lat;lon;timestamp;temperature;humidity
9118;DHT22;4594;50.994;7.126;2023-11-19T00:00:34;12.50;72.00
9118;DHT22;4594;50.994;7.126;2023-11-19T00:03:00;12.50;71.80
9118;DHT22;4594;50.994;7.126;2023-11-19T00:05:27;12.50;71.90
9118;DHT22;4594;50.994;7.126;2023-11-19T00:07:55;12.50;72.00
9118;DHT22;4594;50.994;7.126;2023-11-19T00:10:21;12.50;72.00
9118;DHT22;4594;50.994;7.126;2023-11-19T00:12:48;12.60;72.10
9118;DHT22;4594;50.994;7.126;2023-11-19T00:15:16;12.60;72.20
9118;DHT22;4594;50.994;7.126;2023-11-19T00:17:45;12.70;72.30
9118;DHT22;4594;50.994;7.126;2023-11-19T00:20:19;12.70;72.20
9118;DHT22;4594;50.994;7.126;2023-11-19T00:22:47;12.60;72.20
9118;DHT22;4594;50.994;7.126;2023-11-19T00:25:21;12.70;72.40
9118;DHT22;4594;50.994;7.126;2023-11-19T00:27:51;12.60;72.20
9118;DHT22;4594;50.994;7.126;2023-11-19T00:30:19;12.60;72.40
9118;DHT22;4594;50.994;7.126;2023-11-19T00:32:44;12.70;72.60
9118;DHT22;4594;50.994;7.126;2023-11-19T00:35:11;12.70;72.70
9118;DHT22;4594;50.994;7.126;2023-11-19T00:37:39;12.70;72.80
9118;DHT22;4594;50.994;7.126;2023-11-19T00:40:05;12.70;72.70
9118;DHT22;4594;50.994;7.126;2023-11-19T00:42:32;12.70;72.70
9118;DHT22;4594;50.994;7.126;2023-11-19T00:44:58;12.80;72.80
9118;DHT22;4594;50.994;7.126;2023-11-19T00:47:24;12.80;73.00
9118;DHT22;4594;50.994;7.126;2023-11-19T00:49:49;12.90;73.20
9118;DHT22;4594;50.994;7.126;2023-11-19T00:52:16;12.80;73.50
9118;DHT22;4594;50.994;7.126;2023-11-19T00:54:42;12.90;73.40
9118;DHT22;4594;50.994;7.126;2023-11-19T00:57:08;12.90;73.40
9118;DHT22;4594;50.994;7.126;2023-11-19T00:59:34;12.90;73.50
9118;DHT22;4594;50.994;7.126;2023-11-19T01:02:00;13.10;73.70
9118;DHT22;4594;50.994;7.126;2023-11-19T01:04:33;13.00;73.70
9118;DHT22;4594;50.994;7.126;2023-11-19T01:07:04;13.00;73.50
9118;DHT22;4594;50.994;7.126;2023-11-19T01:09:31;13.00;73.70
9118;DHT22;4594;50.994;7.126;2023-11-19T01:12:00;13.10;73.80
9118;DHT22;4594;50.994;7.126;2023-11-19T01:14:28;13.10;73.70
9118;DHT22;4594;50.994;7.126;2023-11-19T01:16:54;13.30;73.90
9118;DHT22;4594;50.994;7.126;2023-11-19T01:19:22;13.20;73.70
9118;DHT22;4594;50.994;7.126;2023-11-19T01:21:48;13.10;73.40
9118;DHT22;4594;50.994;7.126;2023-11-19T01:24:15;13.20;73.40
9118;DHT22;4594;50.994;7.126;2023-11-19T01:26:41;13.30;73.40
9118;DHT22;4594;50.994;7.126;2023-11-19T01:29:14;13.20;73.20
9118;DHT22;4594;50.994;7.126;2023-11-19T01:31:41;13.20;73.20
9118;DHT22;4594;50.994;7.126;2023-11-19T01:34:12;13.20;73.20
9118;DHT22;4594;50.994;7.126;2023-11-19T01:36:38;13.20;73.10
9118;DHT22;4594;50.994;7.126;2023-11-19T01:39:04;13.30;73.30
9118;DHT22;4594;50.994;7.126;2023-11-19T01:41:36;13.20;73.20
9118;DHT22;4594;50.994;7.126;2023-11-19T01:44:05;13.30;72.90
9118;DHT22;4594;50.994;7.126;2023-11-19T01:46:32;13.30;73.20
9118;DHT22;4594;50.994;7.126;2023-11-19T01:48:59;13.30;73.30
9118;DHT22;4594;50.994;7.126;2023-11-19T01:51:26;13.50;73.60
9118;DHT22;4594;50.994;7.126;2023-11-19T01:53:53;13.30;73.30
9118;DHT22;4594;50.994;7.126;2023-11-19T01:56:20;13.30;73.20
9118;DHT22;4594;50.994;7.126;2023-11-19T01:58:48;13.40;73.70
9118;DHT22;4594;50.994;7.126;2023-11-19T02:01:16;13.50;73.30
9118;DHT22;4594;50.994;7.126;2023-11-19T02:03:42;13.30;73.10
9118;DHT22;4594;50.994;7.126;2023-11-19T02:06:08;13.40;73.30
9118;DHT22;4594;50.994;7.126;2023-11-19T02:08:35;13.40;73.30
9118;DHT22;4594;50.994;7.126;2023-11-19T02:11:02;13.40;73.30
9118;DHT22;4594;50.994;7.126;2023-11-19T02:13:28;13.40;73.40
9118;DHT22;4594;50.994;7.126;2023-11-19T02:15:54;13.50;73.50
9118;DHT22;4594;50.994;7.126;2023-11-19T02:18:27;13.40;73.40
9118;DHT22;4594;50.994;7.126;2023-11-19T02:20:54;13.40;73.40
9118;DHT22;4594;50.994;7.126;2023-11-19T02:23:21;13.50;73.50
9118;DHT22;4594;50.994;7.126;2023-11-19T02:29:04;13.50;73.10
9118;DHT22;4594;50.994;7.126;2023-11-19T02:31:32;13.50;73.60
9118;DHT22;4594;50.994;7.126;2023-11-19T02:33:59;13.50;73.60
9118;DHT22;4594;50.994;7.126;2023-11-19T02:36:27;13.50;73.70
9118;DHT22;4594;50.994;7.126;2023-11-19T02:38:53;13.50;73.60
9118;DHT22;4594;50.994;7.126;2023-11-19T02:41:19;13.50;73.70
9118;DHT22;4594;50.994;7.126;2023-11-19T02:43:45;13.60;73.80
9118;DHT22;4594;50.994;7.126;2023-11-19T02:46:13;13.60;73.90
9118;DHT22;4594;50.994;7.126;2023-11-19T02:48:38;13.60;73.90
9118;DHT22;4594;50.994;7.126;2023-11-19T02:51:05;13.60;74.00
9118;DHT22;4594;50.994;7.126;2023-11-19T02:53:34;13.60;74.00
9118;DHT22;4594;50.994;7.126;2023-11-19T02:56:02;13.70;74.10
9118;DHT22;4594;50.994;7.126;2023-11-19T02:58:37;13.70;74.10
9118;DHT22;4594;50.994;7.126;2023-11-19T03:01:04;13.60;74.00
9118;DHT22;4594;50.994;7.126;2023-11-19T03:03:38;13.70;74.20
9118;DHT22;4594;50.994;7.126;2023-11-19T03:06:06;14.00;74.50
9118;DHT22;4594;50.994;7.126;2023-11-19T03:08:34;13.80;74.30
9118;DHT22;4594;50.994;7.126;2023-11-19T03:11:01;13.80;74.40
9118;DHT22;4594;50.994;7.126;2023-11-19T03:13:27;13.70;74.20
9118;DHT22;4594;50.994;7.126;2023-11-19T03:15:53;13.80;74.70
9118;DHT22;4594;50.994;7.126;2023-11-19T03:18:19;13.90;74.40
9118;DHT22;4594;50.994;7.126;2023-11-19T03:20:49;13.90;74.50
9118;DHT22;4594;50.994;7.126;2023-11-19T03:23:15;13.90;74.30
9118;DHT22;4594;50.994;7.126;2023-11-19T03:25:41;13.90;74.50
9118;DHT22;4594;50.994;7.126;2023-11-19T03:28:06;13.90;74.50
9118;DHT22;4594;50.994;7.126;2023-11-19T03:30:32;14.00;74.70
9118;DHT22;4594;50.994;7.126;2023-11-19T03:32:58;14.00;74.70
9118;DHT22;4594;50.994;7.126;2023-11-19T03:35:25;14.00;74.70
9118;DHT22;4594;50.994;7.126;2023-11-19T03:37:51;14.00;74.60
9118;DHT22;4594;50.994;7.126;2023-11-19T03:40:17;14.00;74.60
9118;DHT22;4594;50.994;7.126;2023-11-19T03:42:45;14.10;74.70
9118;DHT22;4594;50.994;7.126;2023-11-19T03:45:11;14.10;75.00
9118;DHT22;4594;50.994;7.126;2023-11-19T03:47:37;14.10;74.60
9118;DHT22;4594;50.994;7.126;2023-11-19T03:50:04;14.10;74.60
9118;DHT22;4594;50.994;7.126;2023-11-19T03:52:31;14.10;74.60
9118;DHT22;4594;50.994;7.126;2023-11-19T03:54:56;14.20;74.60
9118;DHT22;4594;50.994;7.126;2023-11-19T03:57:23;14.20;74.60
9118;DHT22;4594;50.994;7.126;2023-11-19T03:59:49;14.30;74.70
9118;DHT22;4594;50.994;7.126;2023-11-19T04:02:15;14.20;74.50
9118;DHT22;4594;50.994;7.126;2023-11-19T04:04:42;14.30;74.50
9118;DHT22;4594;50.994;7.126;2023-11-19T04:07:08;14.30;74.50
9118;DHT22;4594;50.994;7.126;2023-11-19T04:09:33;14.20;74.30
9118;DHT22;4594;50.994;7.126;2023-11-19T04:12:00;14.20;74.20
9118;DHT22;4594;50.994;7.126;2023-11-19T04:14:26;14.20;74.10
9118;DHT22;4594;50.994;7.126;2023-11-19T04:16:52;14.20;74.00
9118;DHT22;4594;50.994;7.126;2023-11-19T04:19:19;14.30;74.00
9118;DHT22;4594;50.994;7.126;2023-11-19T04:21:44;14.30;73.90
9118;DHT22;4594;50.994;7.126;2023-11-19T04:24:11;14.30;73.90
9118;DHT22;4594;50.994;7.126;2023-11-19T04:26:46;14.30;73.80
9118;DHT22;4594;50.994;7.126;2023-11-19T04:29:13;14.40;73.20
9118;DHT22;4594;50.994;7.126;2023-11-19T04:31:40;14.30;73.80
9118;DHT22;4594;50.994;7.126;2023-11-19T04:34:07;14.30;73.80
9118;DHT22;4594;50.994;7.126;2023-11-19T04:36:33;14.30;73.70
9118;DHT22;4594;50.994;7.126;2023-11-19T04:39:00;14.40;73.80
9118;DHT22;4594;50.994;7.126;2023-11-19T04:41:26;14.40;73.70
9118;DHT22;4594;50.994;7.126;2023-11-19T04:43:55;14.40;73.70
9118;DHT22;4594;50.994;7.126;2023-11-19T04:46:21;14.40;73.70
9118;DHT22;4594;50.994;7.126;2023-11-19T04:48:47;14.40;73.60
9118;DHT22;4594;50.994;7.126;2023-11-19T04:51:12;14.50;73.80
9118;DHT22;4594;50.994;7.126;2023-11-19T04:53:38;14.40;73.70
9118;DHT22;4594;50.994;7.126;2023-11-19T04:56:11;14.40;73.60
9118;DHT22;4594;50.994;7.126;2023-11-19T04:58:37;14.40;73.00
9118;DHT22;4594;50.994;7.126;2023-11-19T05:01:05;14.40;73.50
9118;DHT22;4594;50.994;7.126;2023-11-19T05:03:31;14.30;73.00
9118;DHT22;4594;50.994;7.126;2023-11-19T05:06:00;14.40;73.30
9118;DHT22;4594;50.994;7.126;2023-11-19T05:08:26;14.50;73.20
9118;DHT22;4594;50.994;7.126;2023-11-19T05:10:51;14.40;73.30
9118;DHT22;4594;50.994;7.126;2023-11-19T05:13:17;14.50;73.40
9118;DHT22;4594;50.994;7.126;2023-11-19T05:15:43;14.50;73.40
9118;DHT22;4594;50.994;7.126;2023-11-19T05:18:08;14.50;73.20
9118;DHT22;4594;50.994;7.126;2023-11-19T05:20:34;14.50;73.10
9118;DHT22;4594;50.994;7.126;2023-11-19T05:23:00;14.50;73.10
9118;DHT22;4594;50.994;7.126;2023-11-19T05:25:26;14.40;72.90
9118;DHT22;4594;50.994;7.126;2023-11-19T05:27:53;14.50;72.70
9118;DHT22;4594;50.994;7.126;2023-11-19T05:30:18;14.40;72.10
9118;DHT22;4594;50.994;7.126;2023-11-19T05:32:44;14.30;71.40
9118;DHT22;4594;50.994;7.126;2023-11-19T05:35:11;14.40;70.90
9118;DHT22;4594;50.994;7.126;2023-11-19T05:37:37;14.30;70.30
9118;DHT22;4594;50.994;7.126;2023-11-19T05:40:04;14.30;69.70
9118;DHT22;4594;50.994;7.126;2023-11-19T05:42:37;14.20;69.40
9118;DHT22;4594;50.994;7.126;2023-11-19T05:45:03;14.20;69.00
9118;DHT22;4594;50.994;7.126;2023-11-19T05:47:29;14.20;68.80
9118;DHT22;4594;50.994;7.126;2023-11-19T05:49:54;14.10;68.40
9118;DHT22;4594;50.994;7.126;2023-11-19T05:52:20;14.00;68.30
9118;DHT22;4594;50.994;7.126;2023-11-19T05:54:47;13.90;68.20
9118;DHT22;4594;50.994;7.126;2023-11-19T05:57:17;13.90;68.20
9118;DHT22;4594;50.994;7.126;2023-11-19T05:59:48;13.80;68.50
9118;DHT22;4594;50.994;7.126;2023-11-19T06:02:13;13.70;69.00
9118;DHT22;4594;50.994;7.126;2023-11-19T06:04:39;13.80;69.50
9118;DHT22;4594;50.994;7.126;2023-11-19T06:07:05;13.70;69.50
9118;DHT22;4594;50.994;7.126;2023-11-19T06:09:31;13.70;69.50
9118;DHT22;4594;50.994;7.126;2023-11-19T06:11:59;13.60;69.40
9118;DHT22;4594;50.994;7.126;2023-11-19T06:14:27;13.70;69.50
9118;DHT22;4594;50.994;7.126;2023-11-19T06:16:53;13.60;69.60
9118;DHT22;4594;50.994;7.126;2023-11-19T06:19:18;13.60;69.90
9118;DHT22;4594;50.994;7.126;2023-11-19T06:21:44;13.60;70.20
9118;DHT22;4594;50.994;7.126;2023-11-19T06:24:10;13.60;70.50
9118;DHT22;4594;50.994;7.126;2023-11-19T06:26:35;13.60;70.80
9118;DHT22;4594;50.994;7.126;2023-11-19T06:29:01;13.60;71.10
9118;DHT22;4594;50.994;7.126;2023-11-19T06:31:27;13.60;71.20
9118;DHT22;4594;50.994;7.126;2023-11-19T06:33:53;13.60;71.30
9118;DHT22;4594;50.994;7.126;2023-11-19T06:36:18;13.60;71.60
9118;DHT22;4594;50.994;7.126;2023-11-19T06:38:44;13.60;71.80
9118;DHT22;4594;50.994;7.126;2023-11-19T06:41:09;13.70;72.20
9118;DHT22;4594;50.994;7.126;2023-11-19T06:43:37;13.70;72.20
9118;DHT22;4594;50.994;7.126;2023-11-19T06:46:03;13.80;72.20
9118;DHT22;4594;50.994;7.126;2023-11-19T06:48:34;13.80;72.10
9118;DHT22;4594;50.994;7.126;2023-11-19T06:51:00;13.80;72.10
9118;DHT22;4594;50.994;7.126;2023-11-19T06:53:26;13.80;71.90
9118;DHT22;4594;50.994;7.126;2023-11-19T06:55:53;13.80;71.60
9118;DHT22;4594;50.994;7.126;2023-11-19T06:58:19;13.90;71.30
9118;DHT22;4594;50.994;7.126;2023-11-19T07:00:46;13.80;70.60
9118;DHT22;4594;50.994;7.126;2023-11-19T07:03:14;13.80;70.20
9118;DHT22;4594;50.994;7.126;2023-11-19T07:05:39;13.80;69.80
9118;DHT22;4594;50.994;7.126;2023-11-19T07:08:08;13.80;69.50
9118;DHT22;4594;50.994;7.126;2023-11-19T07:10:34;13.80;68.70
9118;DHT22;4594;50.994;7.126;2023-11-19T07:12:59;13.70;68.80
9118;DHT22;4594;50.994;7.126;2023-11-19T07:15:25;13.70;68.60
9118;DHT22;4594;50.994;7.126;2023-11-19T07:17:51;13.70;68.40
9118;DHT22;4594;50.994;7.126;2023-11-19T07:20:19;13.60;68.10
9118;DHT22;4594;50.994;7.126;2023-11-19T07:22:44;13.60;68.00
9118;DHT22;4594;50.994;7.126;2023-11-19T07:25:14;13.60;68.00
9118;DHT22;4594;50.994;7.126;2023-11-19T07:27:40;13.50;67.90
9118;DHT22;4594;50.994;7.126;2023-11-19T07:30:06;13.50;67.80
9118;DHT22;4594;50.994;7.126;2023-11-19T07:32:35;13.50;67.80
9118;DHT22;4594;50.994;7.126;2023-11-19T07:35:01;13.40;67.70
9118;DHT22;4594;50.994;7.126;2023-11-19T07:37:26;13.40;67.70
9118;DHT22;4594;50.994;7.126;2023-11-19T07:39:52;13.40;67.90
9118;DHT22;4594;50.994;7.126;2023-11-19T07:42:18;13.40;68.70
9118;DHT22;4594;50.994;7.126;2023-11-19T07:44:44;13.40;68.70
9118;DHT22;4594;50.994;7.126;2023-11-19T07:47:09;13.40;69.00
9118;DHT22;4594;50.994;7.126;2023-11-19T07:49:35;13.40;69.10
9118;DHT22;4594;50.994;7.126;2023-11-19T07:52:01;13.70;69.50
9118;DHT22;4594;50.994;7.126;2023-11-19T07:54:28;13.40;69.30
9118;DHT22;4594;50.994;7.126;2023-11-19T07:56:54;13.40;69.50
9118;DHT22;4594;50.994;7.126;2023-11-19T07:59:21;13.40;69.80
9118;DHT22;4594;50.994;7.126;2023-11-19T08:01:47;13.40;70.00
9118;DHT22;4594;50.994;7.126;2023-11-19T08:04:13;13.40;70.00
9118;DHT22;4594;50.994;7.126;2023-11-19T08:06:39;13.50;70.00
9118;DHT22;4594;50.994;7.126;2023-11-19T08:09:05;13.40;69.80
9118;DHT22;4594;50.994;7.126;2023-11-19T08:11:32;13.40;69.60
9118;DHT22;4594;50.994;7.126;2023-11-19T08:13:58;13.50;69.50
9118;DHT22;4594;50.994;7.126;2023-11-19T08:16:24;13.50;69.40
9118;DHT22;4594;50.994;7.126;2023-11-19T08:18:50;13.40;69.80
9118;DHT22;4594;50.994;7.126;2023-11-19T08:21:16;13.40;69.60
9118;DHT22;4594;50.994;7.126;2023-11-19T08:23:41;13.50;69.80
9118;DHT22;4594;50.994;7.126;2023-11-19T08:26:07;13.60;70.20
9118;DHT22;4594;50.994;7.126;2023-11-19T08:28:33;13.70;70.70
9118;DHT22;4594;50.994;7.126;2023-11-19T08:31:00;13.60;70.90
9118;DHT22;4594;50.994;7.126;2023-11-19T08:33:26;13.60;71.60
9118;DHT22;4594;50.994;7.126;2023-11-19T08:35:52;13.70;73.20
9118;DHT22;4594;50.994;7.126;2023-11-19T08:38:18;13.70;74.30
9118;DHT22;4594;50.994;7.126;2023-11-19T08:40:44;13.90;75.40
9118;DHT22;4594;50.994;7.126;2023-11-19T08:43:09;14.10;76.60
9118;DHT22;4594;50.994;7.126;2023-11-19T08:45:35;14.10;77.30
9118;DHT22;4594;50.994;7.126;2023-11-19T08:48:01;14.30;77.70
9118;DHT22;4594;50.994;7.126;2023-11-19T08:50:27;14.40;77.60
9118;DHT22;4594;50.994;7.126;2023-11-19T08:52:52;14.60;77.60
9118;DHT22;4594;50.994;7.126;2023-11-19T08:55:18;14.70;77.50
9118;DHT22;4594;50.994;7.126;2023-11-19T08:57:44;14.80;77.90
9118;DHT22;4594;50.994;7.126;2023-11-19T09:00:10;15.00;78.30
9118;DHT22;4594;50.994;7.126;2023-11-19T09:02:39;15.10;78.20
9118;DHT22;4594;50.994;7.126;2023-11-19T09:05:06;15.30;78.40
9118;DHT22;4594;50.994;7.126;2023-11-19T09:07:35;15.40;77.90
9118;DHT22;4594;50.994;7.126;2023-11-19T09:10:01;15.60;77.70
9118;DHT22;4594;50.994;7.126;2023-11-19T09:12:28;16.80;78.60
9118;DHT22;4594;50.994;7.126;2023-11-19T09:14:54;15.80;77.00
9118;DHT22;4594;50.994;7.126;2023-11-19T09:17:23;16.00;77.50
9118;DHT22;4594;50.994;7.126;2023-11-19T09:19:49;16.20;76.40
9118;DHT22;4594;50.994;7.126;2023-11-19T09:22:14;16.30;76.80
9118;DHT22;4594;50.994;7.126;2023-11-19T09:24:40;16.70;76.20
9118;DHT22;4594;50.994;7.126;2023-11-19T09:27:06;17.00;76.10
9118;DHT22;4594;50.994;7.126;2023-11-19T09:29:32;16.60;75.40
9118;DHT22;4594;50.994;7.126;2023-11-19T09:32:03;16.60;74.70
9118;DHT22;4594;50.994;7.126;2023-11-19T09:34:29;16.80;73.50
9118;DHT22;4594;50.994;7.126;2023-11-19T09:36:55;16.80;73.20
9118;DHT22;4594;50.994;7.126;2023-11-19T09:39:21;16.80;72.30
9118;DHT22;4594;50.994;7.126;2023-11-19T09:41:47;16.80;71.10
9118;DHT22;4594;50.994;7.126;2023-11-19T09:44:14;17.00;70.00
9118;DHT22;4594;50.994;7.126;2023-11-19T09:46:43;16.80;68.70
9118;DHT22;4594;50.994;7.126;2023-11-19T09:49:10;16.80;68.40
9118;DHT22;4594;50.994;7.126;2023-11-19T09:51:37;16.70;69.10
9118;DHT22;4594;50.994;7.126;2023-11-19T09:54:04;16.80;69.00
9118;DHT22;4594;50.994;7.126;2023-11-19T09:56:29;16.80;68.80
9118;DHT22;4594;50.994;7.126;2023-11-19T09:58:56;16.80;68.50
9118;DHT22;4594;50.994;7.126;2023-11-19T10:01:22;16.80;68.20
9118;DHT22;4594;50.994;7.126;2023-11-19T10:03:48;16.70;67.50
9118;DHT22;4594;50.994;7.126;2023-11-19T10:06:15;16.70;67.40
9118;DHT22;4594;50.994;7.126;2023-11-19T10:08:41;16.60;67.40
9118;DHT22;4594;50.994;7.126;2023-11-19T10:11:09;16.60;67.00
9118;DHT22;4594;50.994;7.126;2023-11-19T10:13:38;16.50;66.40
9118;DHT22;4594;50.994;7.126;2023-11-19T10:16:08;16.50;66.40
9118;DHT22;4594;50.994;7.126;2023-11-19T10:18:34;16.50;65.30
9118;DHT22;4594;50.994;7.126;2023-11-19T10:21:06;16.50;67.10
9118;DHT22;4594;50.994;7.126;2023-11-19T10:23:57;16.50;66.40
9118;DHT22;4594;50.994;7.126;2023-11-19T10:26:25;16.40;64.20
9118;DHT22;4594;50.994;7.126;2023-11-19T10:28:52;16.50;67.70
9118;DHT22;4594;50.994;7.126;2023-11-19T10:31:19;16.50;67.60
9118;DHT22;4594;50.994;7.126;2023-11-19T10:33:50;16.40;66.90
9118;DHT22;4594;50.994;7.126;2023-11-19T10:36:17;16.40;66.80
9118;DHT22;4594;50.994;7.126;2023-11-19T10:38:55;16.40;66.30
9118;DHT22;4594;50.994;7.126;2023-11-19T10:41:32;16.50;64.10
9118;DHT22;4594;50.994;7.126;2023-11-19T10:43:59;16.40;64.00
9118;DHT22;4594;50.994;7.126;2023-11-19T10:46:41;16.40;67.60
9118;DHT22;4594;50.994;7.126;2023-11-19T10:49:09;16.40;63.90
9118;DHT22;4594;50.994;7.126;2023-11-19T10:51:36;16.40;67.90
9118;DHT22;4594;50.994;7.126;2023-11-19T10:54:05;16.50;68.10
9118;DHT22;4594;50.994;7.126;2023-11-19T10:56:34;16.40;67.00
9118;DHT22;4594;50.994;7.126;2023-11-19T10:59:01;16.40;66.00
9118;DHT22;4594;50.994;7.126;2023-11-19T11:01:43;16.50;67.20
9118;DHT22;4594;50.994;7.126;2023-11-19T11:04:14;16.40;65.80
9118;DHT22;4594;50.994;7.126;2023-11-19T11:06:41;16.50;65.70
9118;DHT22;4594;50.994;7.126;2023-11-19T11:09:09;16.40;66.70
9118;DHT22;4594;50.994;7.126;2023-11-19T11:11:40;16.40;65.30
9118;DHT22;4594;50.994;7.126;2023-11-19T11:14:11;16.40;65.30
9118;DHT22;4594;50.994;7.126;2023-11-19T11:16:42;16.40;66.00
9118;DHT22;4594;50.994;7.126;2023-11-19T11:19:10;16.40;64.60
9118;DHT22;4594;50.994;7.126;2023-11-19T11:21:38;16.30;65.00
9118;DHT22;4594;50.994;7.126;2023-11-19T11:30:26;16.30;61.50
9118;DHT22;4594;50.994;7.126;2023-11-19T11:38:36;16.20;63.80
9118;DHT22;4594;50.994;7.126;2023-11-19T11:41:19;16.20;64.10
9118;DHT22;4594;50.994;7.126;2023-11-19T11:43:50;16.20;64.20
9118;DHT22;4594;50.994;7.126;2023-11-19T11:49:03;16.30;64.60
9118;DHT22;4594;50.994;7.126;2023-11-19T11:57:08;16.30;63.60
9118;DHT22;4594;50.994;7.126;2023-11-19T12:02:08;16.30;62.90
9118;DHT22;4594;50.994;7.126;2023-11-19T12:04:35;16.30;64.50
9118;DHT22;4594;50.994;7.126;2023-11-19T12:07:06;16.30;64.60
9118;DHT22;4594;50.994;7.126;2023-11-19T12:09:33;16.30;63.20
9118;DHT22;4594;50.994;7.126;2023-11-19T12:17:43;16.30;61.40
9118;DHT22;4594;50.994;7.126;2023-11-19T12:20:15;16.30;62.50
9118;DHT22;4594;50.994;7.126;2023-11-19T12:22:44;16.30;65.70
9118;DHT22;4594;50.994;7.126;2023-11-19T12:25:12;16.30;65.20
9118;DHT22;4594;50.994;7.126;2023-11-19T12:27:46;16.40;65.50
9118;DHT22;4594;50.994;7.126;2023-11-19T12:30:26;16.30;64.40
9118;DHT22;4594;50.994;7.126;2023-11-19T12:32:52;16.40;63.70
9118;DHT22;4594;50.994;7.126;2023-11-19T12:35:19;16.40;65.90
9118;DHT22;4594;50.994;7.126;2023-11-19T12:37:47;16.40;66.00
9118;DHT22;4594;50.994;7.126;2023-11-19T12:40:24;16.50;65.40
9118;DHT22;4594;50.994;7.126;2023-11-19T12:42:54;16.50;62.00
9118;DHT22;4594;50.994;7.126;2023-11-19T12:45:20;16.50;63.00
9118;DHT22;4594;50.994;7.126;2023-11-19T12:47:49;16.50;64.20
9118;DHT22;4594;50.994;7.126;2023-11-19T12:50:17;16.50;64.50
9118;DHT22;4594;50.994;7.126;2023-11-19T12:52:55;16.50;64.30
9118;DHT22;4594;50.994;7.126;2023-11-19T12:55:29;16.50;61.20
9118;DHT22;4594;50.994;7.126;2023-11-19T12:57:56;16.40;62.70
9118;DHT22;4594;50.994;7.126;2023-11-19T13:00:25;16.50;64.50
9118;DHT22;4594;50.994;7.126;2023-11-19T13:02:53;16.50;64.00
9118;DHT22;4594;50.994;7.126;2023-11-19T13:05:33;16.50;63.50
9118;DHT22;4594;50.994;7.126;2023-11-19T13:10:52;16.40;63.40
9118;DHT22;4594;50.994;7.126;2023-11-19T13:13:17;16.40;62.90
9118;DHT22;4594;50.994;7.126;2023-11-19T13:15:43;16.30;62.70
9118;DHT22;4594;50.994;7.126;2023-11-19T13:18:12;16.30;62.50
9118;DHT22;4594;50.994;7.126;2023-11-19T13:20:39;16.20;62.60
9118;DHT22;4594;50.994;7.126;2023-11-19T13:23:06;16.20;62.70
9118;DHT22;4594;50.994;7.126;2023-11-19T13:25:35;16.20;62.90
9118;DHT22;4594;50.994;7.126;2023-11-19T13:28:01;16.20;63.20
9118;DHT22;4594;50.994;7.126;2023-11-19T13:30:27;16.10;63.30
9118;DHT22;4594;50.994;7.126;2023-11-19T13:32:54;16.10;63.40
9118;DHT22;4594;50.994;7.126;2023-11-19T13:35:21;16.10;63.40
9118;DHT22;4594;50.994;7.126;2023-11-19T13:37:47;16.10;63.10
9118;DHT22;4594;50.994;7.126;2023-11-19T13:40:14;16.00;63.10
9118;DHT22;4594;50.994;7.126;2023-11-19T13:42:42;16.00;63.30
9118;DHT22;4594;50.994;7.126;2023-11-19T13:45:12;16.00;63.10
9118;DHT22;4594;50.994;7.126;2023-11-19T13:47:40;15.90;62.00
9118;DHT22;4594;50.994;7.126;2023-11-19T13:50:08;15.90;63.20
9118;DHT22;4594;50.994;7.126;2023-11-19T13:52:35;15.90;63.30
9118;DHT22;4594;50.994;7.126;2023-11-19T13:55:08;15.90;63.70
9118;DHT22;4594;50.994;7.126;2023-11-19T13:57:36;15.90;64.20
9118;DHT22;4594;50.994;7.126;2023-11-19T14:00:03;15.90;64.30
9118;DHT22;4594;50.994;7.126;2023-11-19T14:02:32;15.90;64.10
9118;DHT22;4594;50.994;7.126;2023-11-19T14:04:58;15.80;64.30
9118;DHT22;4594;50.994;7.126;2023-11-19T14:07:24;15.90;64.10
9118;DHT22;4594;50.994;7.126;2023-11-19T14:09:50;15.90;64.00
9118;DHT22;4594;50.994;7.126;2023-11-19T14:12:15;15.90;63.90
9118;DHT22;4594;50.994;7.126;2023-11-19T14:14:43;16.00;64.10
9118;DHT22;4594;50.994;7.126;2023-11-19T14:17:09;15.90;64.30
9118;DHT22;4594;50.994;7.126;2023-11-19T14:19:36;15.90;64.00
9118;DHT22;4594;50.994;7.126;2023-11-19T14:22:03;15.90;64.20
9118;DHT22;4594;50.994;7.126;2023-11-19T14:24:29;15.90;64.10
9118;DHT22;4594;50.994;7.126;2023-11-19T14:26:55;15.90;64.50
9118;DHT22;4594;50.994;7.126;2023-11-19T14:29:24;15.80;64.30
9118;DHT22;4594;50.994;7.126;2023-11-19T14:31:51;16.00;64.30
9118;DHT22;4594;50.994;7.126;2023-11-19T14:34:19;15.80;64.00
9118;DHT22;4594;50.994;7.126;2023-11-19T14:36:45;15.80;64.10
9118;DHT22;4594;50.994;7.126;2023-11-19T14:39:11;15.90;64.30
9118;DHT22;4594;50.994;7.126;2023-11-19T14:41:37;15.80;64.20
9118;DHT22;4594;50.994;7.126;2023-11-19T14:44:03;15.70;63.70
9118;DHT22;4594;50.994;7.126;2023-11-19T14:46:29;15.80;63.70
9118;DHT22;4594;50.994;7.126;2023-11-19T14:48:55;15.80;63.50
9118;DHT22;4594;50.994;7.126;2023-11-19T14:51:20;15.70;63.30
9118;DHT22;4594;50.994;7.126;2023-11-19T14:53:46;15.70;63.10
9118;DHT22;4594;50.994;7.126;2023-11-19T14:56:13;15.70;63.10
9118;DHT22;4594;50.994;7.126;2023-11-19T14:58:39;15.70;63.40
9118;DHT22;4594;50.994;7.126;2023-11-19T15:01:05;15.60;63.50
9118;DHT22;4594;50.994;7.126;2023-11-19T15:03:32;15.60;63.40
9118;DHT22;4594;50.994;7.126;2023-11-19T15:05:59;15.60;63.50
9118;DHT22;4594;50.994;7.126;2023-11-19T15:08:25;15.60;63.90
9118;DHT22;4594;50.994;7.126;2023-11-19T15:10:50;15.60;63.70
9118;DHT22;4594;50.994;7.126;2023-11-19T15:13:16;15.60;63.50
9118;DHT22;4594;50.994;7.126;2023-11-19T15:15:42;15.50;63.00
9118;DHT22;4594;50.994;7.126;2023-11-19T15:18:08;15.50;62.80
9118;DHT22;4594;50.994;7.126;2023-11-19T15:20:35;15.50;63.10
9118;DHT22;4594;50.994;7.126;2023-11-19T15:23:02;15.40;63.00
9118;DHT22;4594;50.994;7.126;2023-11-19T15:25:28;15.50;63.10
9118;DHT22;4594;50.994;7.126;2023-11-19T15:27:53;15.40;62.80
9118;DHT22;4594;50.994;7.126;2023-11-19T15:30:20;15.40;62.50
9118;DHT22;4594;50.994;7.126;2023-11-19T15:32:46;15.40;62.70
9118;DHT22;4594;50.994;7.126;2023-11-19T15:35:12;15.40;62.80
9118;DHT22;4594;50.994;7.126;2023-11-19T15:37:38;15.30;62.60
9118;DHT22;4594;50.994;7.126;2023-11-19T15:40:06;15.30;62.60
9118;DHT22;4594;50.994;7.126;2023-11-19T15:42:34;15.30;62.50
9118;DHT22;4594;50.994;7.126;2023-11-19T15:45:00;15.30;63.00
9118;DHT22;4594;50.994;7.126;2023-11-19T15:47:29;15.30;63.40
9118;DHT22;4594;50.994;7.126;2023-11-19T15:49:55;15.20;63.50
9118;DHT22;4594;50.994;7.126;2023-11-19T15:52:21;15.30;63.50
9118;DHT22;4594;50.994;7.126;2023-11-19T15:54:47;15.20;63.30
9118;DHT22;4594;50.994;7.126;2023-11-19T15:57:13;15.10;63.20
9118;DHT22;4594;50.994;7.126;2023-11-19T15:59:39;15.10;63.50
9118;DHT22;4594;50.994;7.126;2023-11-19T16:02:04;15.10;63.50
9118;DHT22;4594;50.994;7.126;2023-11-19T16:04:30;15.10;63.30
9118;DHT22;4594;50.994;7.126;2023-11-19T16:06:56;15.00;63.20
9118;DHT22;4594;50.994;7.126;2023-11-19T16:09:21;15.00;63.40
9118;DHT22;4594;50.994;7.126;2023-11-19T16:11:50;15.00;63.70
9118;DHT22;4594;50.994;7.126;2023-11-19T16:14:16;14.90;62.70
9118;DHT22;4594;50.994;7.126;2023-11-19T16:16:42;14.90;63.70
9118;DHT22;4594;50.994;7.126;2023-11-19T16:19:08;14.90;63.60
9118;DHT22;4594;50.994;7.126;2023-11-19T16:21:34;14.90;63.80
9118;DHT22;4594;50.994;7.126;2023-11-19T16:24:03;15.20;64.60
9118;DHT22;4594;50.994;7.126;2023-11-19T16:26:30;14.80;64.00
9118;DHT22;4594;50.994;7.126;2023-11-19T16:28:58;14.90;64.30
9118;DHT22;4594;50.994;7.126;2023-11-19T16:31:24;14.80;64.40
9118;DHT22;4594;50.994;7.126;2023-11-19T16:33:51;14.80;64.40
9118;DHT22;4594;50.994;7.126;2023-11-19T16:36:16;14.80;64.90